Weather at Koro Island Airport

Public forecast

Using degrees Celsius for public forecast. Weather courtesy of forecast.io.

Closest aviation weather report (METAR) to Koro Island Airport

Report is more than 6 hours old.

Closest report is Savusavu Airport, 32.9 nm (60.9 km) N. Retrieved 2022/07/04 04:00 UTC (12 hours ago):

NFNS 040400Z 13014KT 9999 SCT024TCU SCT046 BKN110 26/23 Q1013

Closest aviation forecast (TAF) to Koro Island Airport

Closest forecast is Nausori International Airport, 64.7 nm (119.9 km) SW. Retrieved 2022/07/04 12:18 UTC (4 hours ago):

TAF TAF NFNA 041114Z 0412/0512 13007KT 9999 -SHRA FEW014 SCT020 PROB30 TEMPO 0416/0420 5000 SHRA BKN015